Time;durP1;ratioP1;P1;durP2;ratioP2;P2;SDS_P1;SDS_P2;PMS_P1;PMS_P2;Temp;Humidity;BMP_temperature;BMP_pressure;BME280_temperature;BME280_humidity;BME280_pressure;Samples;Min_cycle;Max_cycle;Signal;HPM_P1;HPM_P2
2023/05/03 00:00:06;;;;;;;20.83;12.70;;;;;;;5.96;100.00;96561.06;1014686;29;20104;-69
2023/05/03 00:00:39;;;;;;;19.80;13.32;;;;;;;5.97;100.00;96561.88;1015136;29;20036;-69
2023/05/03 00:01:10;;;;;;;20.05;12.70;;;;;;;5.96;100.00;96562.88;1020405;28;20298;-70
2023/05/03 00:01:42;;;;;;;21.40;12.88;;;;;;;5.97;100.00;96567.09;1027081;28;20274;-71
2023/05/03 00:02:12;;;;;;;18.65;12.57;;;;;;;5.94;100.00;96560.50;1032412;28;20637;-71
2023/05/03 00:02:43;;;;;;;22.45;12.98;;;;;;;5.99;100.00;96565.06;1029459;28;20277;-70
2023/05/03 00:03:13;;;;;;;23.27;12.93;;;;;;;5.99;100.00;96570.28;1018874;29;20405;-72
2023/05/03 00:03:44;;;;;;;20.63;12.60;;;;;;;5.99;100.00;96558.06;1028853;28;20022;-71
2023/05/03 00:04:15;;;;;;;19.23;12.73;;;;;;;5.97;100.00;96572.28;1030507;28;20041;-72
2023/05/03 00:04:46;;;;;;;19.58;13.88;;;;;;;5.94;100.00;96565.72;1029455;28;20031;-71
2023/05/03 00:05:17;;;;;;;24.85;13.98;;;;;;;5.95;100.00;96569.91;1026439;28;20696;-71
2023/05/03 00:05:48;;;;;;;19.30;12.63;;;;;;;5.93;100.00;96571.13;1026877;28;20305;-71
2023/05/03 00:06:19;;;;;;;21.17;13.98;;;;;;;5.91;100.00;96569.50;1022567;28;20042;-71
2023/05/03 00:06:50;;;;;;;19.45;12.20;;;;;;;5.90;100.00;96565.31;1026728;28;20031;-70
2023/05/03 00:07:21;;;;;;;19.60;12.75;;;;;;;5.90;100.00;96562.72;1030496;28;20026;-71
2023/05/03 00:07:52;;;;;;;19.48;12.77;;;;;;;5.88;100.00;96562.13;1026515;28;20362;-72
2023/05/03 00:08:22;;;;;;;19.83;12.23;;;;;;;5.83;100.00;96561.16;1030423;28;20276;-72
2023/05/03 00:08:53;;;;;;;18.98;12.35;;;;;;;5.88;100.00;96569.94;1025727;28;20122;-70
2023/05/03 00:09:23;;;;;;;20.38;12.93;;;;;;;5.86;100.00;96566.72;1030344;28;20499;-71
2023/05/03 00:09:53;;;;;;;20.70;12.93;;;;;;;5.84;100.00;96568.75;1022461;28;20393;-71
2023/05/03 00:10:24;;;;;;;20.20;12.57;;;;;;;5.85;100.00;96574.75;1022548;29;20034;-71
2023/05/03 00:10:58;;;;;;;19.25;12.15;;;;;;;5.85;100.00;96569.56;1030607;28;20022;-70
2023/05/03 00:11:29;;;;;;;19.90;13.00;;;;;;;5.81;100.00;96563.97;1030348;28;20065;-71
2023/05/03 00:12:00;;;;;;;17.92;11.77;;;;;;;5.75;100.00;96554.41;1031168;28;20261;-71
2023/05/03 00:12:30;;;;;;;20.17;13.73;;;;;;;5.82;100.00;96575.19;1027165;28;20625;-70
2023/05/03 00:13:01;;;;;;;20.55;11.95;;;;;;;5.82;100.00;96567.38;1026613;28;20022;-71
2023/05/03 00:13:31;;;;;;;17.85;11.93;;;;;;;5.82;100.00;96565.56;1030582;28;20026;-71
2023/05/03 00:14:02;;;;;;;18.40;12.43;;;;;;;5.77;100.00;96564.59;1023470;28;20404;-71
2023/05/03 00:14:32;;;;;;;22.00;13.60;;;;;;;5.81;100.00;96574.41;1026523;28;20074;-71
2023/05/03 00:15:03;;;;;;;17.48;12.75;;;;;;;5.76;100.00;96566.41;1029542;28;20077;-72
2023/05/03 00:15:34;;;;;;;20.35;12.85;;;;;;;5.75;100.00;96572.63;1026519;28;20030;-71
2023/05/03 00:16:05;;;;;;;18.50;11.70;;;;;;;5.73;100.00;96564.22;1026682;28;20551;-71
2023/05/03 00:16:35;;;;;;;18.85;12.50;;;;;;;5.73;100.00;96572.03;1030530;28;20026;-71
2023/05/03 00:17:06;;;;;;;18.95;11.80;;;;;;;5.73;100.00;96566.81;1026224;28;20045;-71
2023/05/03 00:17:36;;;;;;;17.92;11.73;;;;;;;5.68;100.00;96561.47;1034583;28;20474;-71
2023/05/03 00:18:07;;;;;;;19.05;12.05;;;;;;;5.72;100.00;96567.84;1022211;29;20031;-71
2023/05/03 00:18:37;;;;;;;18.08;12.00;;;;;;;5.70;100.00;96567.28;1022025;28;20028;-72
2023/05/03 00:19:08;;;;;;;18.90;12.32;;;;;;;5.66;100.00;96556.44;1022172;29;20030;-71
2023/05/03 00:19:38;;;;;;;19.05;12.23;;;;;;;5.72;100.00;96569.66;1026486;28;20527;-72
2023/05/03 00:20:10;;;;;;;17.95;12.57;;;;;;;5.72;100.00;96567.84;1030233;28;20027;-71
2023/05/03 00:20:41;;;;;;;19.15;11.48;;;;;;;5.72;100.00;96569.66;1030845;28;20038;-71
2023/05/03 00:21:11;;;;;;;19.83;11.85;;;;;;;5.72;100.00;96559.22;1030407;28;20265;-71
2023/05/03 00:21:42;;;;;;;17.15;11.38;;;;;;;5.66;100.00;96563.47;1036500;28;20018;-70
2023/05/03 00:22:12;;;;;;;16.90;11.85;;;;;;;5.66;100.00;96553.06;1022397;29;20038;-72
2023/05/03 00:22:43;;;;;;;18.60;12.15;;;;;;;5.70;100.00;96563.84;1030324;28;20032;-71
2023/05/03 00:23:13;;;;;;;17.27;12.15;;;;;;;5.68;100.00;96561.47;1030349;28;20030;-70
2023/05/03 00:23:43;;;;;;;21.42;12.88;;;;;;;5.70;100.00;96562.06;1030639;28;20034;-71
2023/05/03 00:24:14;;;;;;;18.85;12.52;;;;;;;5.68;100.00;96559.66;1042526;28;20024;-72
2023/05/03 00:24:44;;;;;;;19.95;13.25;;;;;;;5.68;100.00;96564.06;1038377;28;20040;-72
2023/05/03 00:25:15;;;;;;;21.25;13.25;;;;;;;5.67;100.00;96557.28;1038350;28;20044;-71
2023/05/03 00:25:46;;;;;;;22.60;12.73;;;;;;;5.67;100.00;96555.47;1038534;28;20143;-71
2023/05/03 00:26:16;;;;;;;19.83;12.95;;;;;;;5.68;100.00;96553.66;1030715;28;20050;-72
2023/05/03 00:26:47;;;;;;;18.83;12.32;;;;;;;5.67;100.00;96546.84;1034318;28;20022;-70
2023/05/03 00:27:17;;;;;;;19.70;13.20;;;;;;;5.73;100.00;96550.41;1030452;28;20030;-71
2023/05/03 00:27:48;;;;;;;22.98;13.10;;;;;;;5.70;100.00;96556.84;1026674;28;20093;-71
2023/05/03 00:28:19;;;;;;;21.48;13.77;;;;;;;5.66;100.00;96547.84;1029513;28;20034;-72
2023/05/03 00:28:49;;;;;;;20.48;13.02;;;;;;;5.71;100.00;96552.44;1026082;28;20031;-71
2023/05/03 00:29:21;;;;;;;21.05;13.05;;;;;;;5.72;100.00;96554.81;1026215;28;20740;-70
2023/05/03 00:29:52;;;;;;;21.30;14.18;;;;;;;5.73;100.00;96551.19;1030436;28;20113;-71
2023/05/03 00:30:24;;;;;;;18.98;12.65;;;;;;;5.75;100.00;96551.78;1023583;28;20330;-71
2023/05/03 00:30:54;;;;;;;22.50;14.68;;;;;;;5.71;100.00;96547.22;1030310;28;20030;-71
2023/05/03 00:31:25;;;;;;;25.10;14.02;;;;;;;5.74;100.00;96558.03;1030429;28;21084;-71
2023/05/03 00:31:55;;;;;;;22.83;14.32;;;;;;;5.69;100.00;96547.44;1028462;28;20030;-71
2023/05/03 00:32:25;;;;;;;26.17;16.65;;;;;;;5.71;100.00;96542.81;1030374;28;20471;-71
2023/05/03 00:32:56;;;;;;;22.05;14.48;;;;;;;5.75;100.00;96561.41;1030543;28;20030;-71
2023/05/03 00:33:27;;;;;;;25.63;15.10;;;;;;;5.77;100.00;96555.00;1029466;28;20029;-71
2023/05/03 00:33:57;;;;;;;23.98;15.18;;;;;;;5.77;100.00;96561.97;1030326;28;20537;-71
2023/05/03 00:34:28;;;;;;;23.13;14.45;;;;;;;5.74;100.00;96552.81;1030579;28;20660;-70
2023/05/03 00:34:58;;;;;;;23.55;14.77;;;;;;;5.73;100.00;96556.41;1030268;28;20167;-71
2023/05/03 00:35:29;;;;;;;21.80;13.93;;;;;;;5.67;100.00;96552.88;1026428;28;20030;-72
2023/05/03 00:36:06;;;;;;;25.00;14.70;;;;;;;5.67;100.00;96552.06;1030334;28;20529;-71
2023/05/03 00:36:36;;;;;;;25.40;14.55;;;;;;;5.72;100.00;96554.81;1030463;28;20093;-70
2023/05/03 00:37:08;;;;;;;23.77;14.25;;;;;;;5.73;100.00;96560.81;1030416;28;20262;-71
2023/05/03 00:37:39;;;;;;;23.55;13.93;;;;;;;5.70;100.00;96561.25;1032609;28;20033;-72
2023/05/03 00:38:10;;;;;;;19.83;13.80;;;;;;;5.62;100.00;96550.06;1035014;28;20376;-71
2023/05/03 00:38:40;;;;;;;21.02;14.07;;;;;;;5.68;100.00;96556.25;1033706;28;20048;-71
2023/05/03 00:39:11;;;;;;;21.23;14.48;;;;;;;5.70;100.00;96563.84;1034271;28;20025;-72
2023/05/03 00:39:41;;;;;;;20.05;13.43;;;;;;;5.61;100.00;96548.50;1034322;28;20032;-71
2023/05/03 00:40:15;;;;;;;21.70;13.73;;;;;;;5.66;100.00;96560.88;1030213;28;20030;-71
2023/05/03 00:40:52;;;;;;;22.02;13.90;;;;;;;5.66;100.00;96558.25;1022736;28;20081;-71
2023/05/03 00:41:23;;;;;;;22.60;14.57;;;;;;;5.66;100.00;96550.44;1026223;28;20340;-72
2023/05/03 00:41:58;;;;;;;22.77;14.27;;;;;;;5.70;100.00;96556.84;1023378;28;20322;-71
2023/05/03 00:42:28;;;;;;;23.08;14.57;;;;;;;5.65;100.00;96548.88;1023754;28;20857;-71
2023/05/03 00:42:59;;;;;;;22.30;13.82;;;;;;;5.64;100.00;96550.69;1022815;28;20270;-70
2023/05/03 00:43:31;;;;;;;20.98;13.98;;;;;;;5.60;100.00;96543.47;1032057;28;20034;-70
2023/05/03 00:44:01;;;;;;;23.25;14.55;;;;;;;5.65;100.00;96547.06;1018010;29;20260;-71
2023/05/03 00:44:31;;;;;;;22.17;13.98;;;;;;;5.64;100.00;96552.50;1023984;28;20279;-72
2023/05/03 00:45:04;;;;;;;23.23;14.45;;;;;;;5.63;100.00;96550.88;1022650;28;20054;-72
2023/05/03 00:45:35;;;;;;;20.75;14.05;;;;;;;5.56;100.00;96544.91;1027512;28;20909;-71
2023/05/03 00:46:06;;;;;;;19.30;12.93;;;;;;;5.59;100.00;96549.69;1030227;28;20300;-71
2023/05/03 00:46:36;;;;;;;22.40;14.35;;;;;;;5.58;100.00;96548.13;1028182;28;20056;-71
2023/05/03 00:47:07;;;;;;;21.52;13.43;;;;;;;5.57;100.00;96551.75;1024941;28;20111;-71
2023/05/03 00:47:37;;;;;;;19.60;13.43;;;;;;;5.60;100.00;96551.28;1024617;28;20389;-72
2023/05/03 00:48:08;;;;;;;21.83;14.00;;;;;;;5.57;100.00;96543.94;1026211;28;20031;-71
2023/05/03 00:48:38;;;;;;;21.45;12.90;;;;;;;5.57;100.00;96546.53;1025719;28;20076;-71
2023/05/03 00:49:09;;;;;;;24.83;13.75;;;;;;;5.56;100.00;96544.91;1022253;29;20030;-70
2023/05/03 00:49:40;;;;;;;22.55;13.30;;;;;;;5.52;100.00;96543.75;1022364;29;20019;-71
2023/05/03 00:50:10;;;;;;;22.42;13.70;;;;;;;5.53;100.00;96545.34;1022211;29;20035;-70
2023/05/03 00:50:41;;;;;;;20.92;13.40;;;;;;;5.46;100.00;96534.16;1013308;29;20032;-71
2023/05/03 00:51:12;;;;;;;21.08;13.38;;;;;;;5.52;100.00;96547.13;1018325;29;20035;-70
2023/05/03 00:51:42;;;;;;;23.35;13.45;;;;;;;5.52;100.00;96543.75;1014391;29;20055;-70
2023/05/03 00:52:13;;;;;;;20.55;12.98;;;;;;;5.53;100.00;96542.72;1019546;28;20027;-72
2023/05/03 00:52:44;;;;;;;21.48;13.20;;;;;;;5.53;100.00;96550.53;1022586;28;20031;-72
2023/05/03 00:53:14;;;;;;;22.13;13.65;;;;;;;5.49;100.00;96541.56;1030694;28;20022;-72
2023/05/03 00:53:45;;;;;;;21.83;13.70;;;;;;;5.50;100.00;96545.75;1026127;28;20026;-71
2023/05/03 00:54:15;;;;;;;22.10;13.65;;;;;;;5.50;100.00;96540.53;1029958;28;20429;-72
2023/05/03 00:54:46;;;;;;;23.38;13.18;;;;;;;5.50;100.00;96543.16;1030675;28;20073;-70
2023/05/03 00:55:16;;;;;;;22.77;14.50;;;;;;;5.41;100.00;96522.59;1030329;28;20022;-71
2023/05/03 00:55:47;;;;;;;22.48;13.63;;;;;;;5.54;100.00;96539.13;1026118;28;20027;-71
2023/05/03 00:56:22;;;;;;;24.92;14.88;;;;;;;5.54;100.00;96536.53;1023156;28;20019;-71
2023/05/03 00:56:52;;;;;;;24.30;14.75;;;;;;;5.54;100.00;96536.53;1022156;29;20038;-71
2023/05/03 00:57:23;;;;;;;22.30;14.45;;;;;;;5.50;100.00;96540.53;1019317;29;20267;-71
2023/05/03 00:57:54;;;;;;;27.02;15.75;;;;;;;5.53;100.00;96537.53;1024373;28;20055;-71
2023/05/03 00:58:24;;;;;;;23.92;14.70;;;;;;;5.54;100.00;96544.34;1022276;28;20263;-71
2023/05/03 00:58:55;;;;;;;20.80;14.13;;;;;;;5.52;100.00;96535.94;1025962;28;20041;-70
2023/05/03 00:59:25;;;;;;;24.05;14.32;;;;;;;5.46;100.00;96529.75;1025982;28;20033;-71
2023/05/03 00:59:56;;;;;;;21.73;14.15;;;;;;;5.42;100.00;96529.38;1026514;28;20070;-71
2023/05/03 01:00:26;;;;;;;19.40;13.40;;;;;;;5.47;100.00;96535.78;1026355;28;20066;-71
2023/05/03 01:00:57;;;;;;;24.00;14.15;;;;;;;5.46;100.00;96539.38;1025951;28;20038;-71
2023/05/03 01:01:29;;;;;;;22.67;13.57;;;;;;;5.46;100.00;96539.38;1033378;28;20029;-73
2023/05/03 01:01:59;;;;;;;18.95;12.45;;;;;;;5.29;100.00;96513.06;1026193;28;20660;-71
2023/05/03 01:02:30;;;;;;;21.40;13.45;;;;;;;5.41;100.00;96533.00;1026174;28;20270;-71
2023/05/03 01:03:00;;;;;;;19.85;12.73;;;;;;;5.39;100.00;96535.00;1026571;28;20034;-71
2023/05/03 01:03:31;;;;;;;21.60;12.63;;;;;;;5.39;100.00;96532.41;1030667;28;20030;-72
2023/05/03 01:04:02;;;;;;;20.45;12.75;;;;;;;5.41;100.00;96534.81;1030410;28;20030;-71
2023/05/03 01:04:36;;;;;;;18.77;12.63;;;;;;;5.37;100.00;96534.44;1025875;28;20074;-71
2023/05/03 01:05:06;;;;;;;21.00;12.65;;;;;;;5.37;100.00;96536.25;1026352;28;20337;-71
2023/05/03 01:05:46;;;;;;;20.80;13.98;;;;;;;5.35;100.00;96535.63;1027725;28;20816;-70
2023/05/03 01:06:31;;;;;;;23.48;12.35;;;;;;;5.29;100.00;96534.66;1032101;28;20023;-70
2023/05/03 01:07:21;;;;;;;18.95;12.30;;;;;;;5.31;100.00;96534.47;1024547;28;20392;-71
2023/05/03 01:08:12;;;;;;;18.55;11.70;;;;;;;5.27;100.00;96552.31;1020074;28;21117;-71
2023/05/03 01:09:09;;;;;;;18.52;12.48;;;;;;;5.23;100.00;96543.34;1031476;28;20114;-72
2023/05/03 01:10:10;;;;;;;21.08;11.68;;;;;;;5.16;100.00;96540.75;1023526;28;20269;-70
2023/05/03 01:10:46;;;;;;;21.67;12.27;;;;;;;5.09;100.00;96533.97;1021882;29;20358;-71
2023/05/03 01:11:23;;;;;;;16.80;11.35;;;;;;;5.11;100.00;96540.56;1019133;28;20642;-71
2023/05/03 01:11:59;;;;;;;17.80;11.13;;;;;;;5.11;100.00;96540.56;1026221;28;20250;-71
2023/05/03 01:12:32;;;;;;;18.65;12.10;;;;;;;5.10;100.00;96543.41;1022551;29;20373;-71
2023/05/03 01:13:23;;;;;;;18.58;12.10;;;;;;;5.09;100.00;96541.78;1026804;28;20254;-71
2023/05/03 01:13:55;;;;;;;18.15;11.38;;;;;;;5.08;100.00;96538.38;1018646;29;20268;-71
2023/05/03 01:14:35;;;;;;;18.70;11.57;;;;;;;4.97;100.00;96531.25;1025095;28;20083;-71
2023/05/03 01:15:11;;;;;;;22.05;11.75;;;;;;;5.04;100.00;96545.00;1018020;29;20275;-71
2023/05/03 01:15:41;;;;;;;19.45;12.13;;;;;;;5.02;100.00;96538.41;1024921;28;20483;-71
2023/05/03 01:16:23;;;;;;;18.70;11.90;;;;;;;5.03;100.00;96543.44;1028254;28;20250;-71
2023/05/03 01:16:57;;;;;;;18.45;10.93;;;;;;;5.02;100.00;96544.41;1022693;28;20020;-71
2023/05/03 01:17:28;;;;;;;17.55;11.32;;;;;;;5.02;100.00;96543.63;1027484;28;21161;-71
2023/05/03 01:18:02;;;;;;;21.38;11.18;;;;;;;4.96;100.00;96540.84;1034447;28;20498;-72
2023/05/03 01:18:36;;;;;;;19.60;11.68;;;;;;;5.01;100.00;96542.03;1022171;28;20311;-70
2023/05/03 01:19:14;;;;;;;17.23;11.50;;;;;;;4.99;100.00;96547.41;1023310;28;20281;-71
2023/05/03 01:19:47;;;;;;;19.27;11.82;;;;;;;4.99;100.00;96549.22;1025872;28;20310;-70
2023/05/03 01:20:23;;;;;;;19.58;12.43;;;;;;;5.01;100.00;96544.63;1026119;28;20270;-71
2023/05/03 01:20:54;;;;;;;19.70;11.68;;;;;;;4.96;100.00;96540.84;1024336;28;20801;-71
2023/05/03 01:21:25;;;;;;;16.95;11.63;;;;;;;4.91;100.00;96532.84;1025987;28;20261;-72
2023/05/03 01:22:09;;;;;;;17.52;11.90;;;;;;;4.87;100.00;96531.69;1030069;28;20018;-71
2023/05/03 01:22:55;;;;;;;19.77;11.98;;;;;;;4.89;100.00;96534.84;1026304;28;20507;-71
2023/05/03 01:23:31;;;;;;;19.17;10.93;;;;;;;4.84;100.00;96526.09;1022236;29;20322;-71
2023/05/03 01:24:12;;;;;;;18.77;10.90;;;;;;;4.83;100.00;96538.31;1022154;29;20270;-71
2023/05/03 01:24:45;;;;;;;16.92;10.65;;;;;;;4.87;100.00;96542.09;1022049;29;20274;-71
2023/05/03 01:25:15;;;;;;;15.38;10.90;;;;;;;4.84;100.00;96537.28;1022045;29;20281;-71
2023/05/03 01:25:46;;;;;;;16.02;10.02;;;;;;;4.83;100.00;96540.91;1024336;28;20776;-71
2023/05/03 01:26:24;;;;;;;16.33;10.93;;;;;;;4.82;100.00;96535.91;1022842;28;20429;-70
2023/05/03 01:26:54;;;;;;;18.90;11.55;;;;;;;4.81;100.00;96536.91;1029014;28;20283;-71
2023/05/03 01:27:24;;;;;;;20.13;11.63;;;;;;;4.80;100.00;96538.72;1034425;28;20276;-71
2023/05/03 01:27:55;;;;;;;13.75;9.13;;;;;;;4.74;100.00;96531.72;1030038;28;20038;-72
2023/05/03 01:28:25;;;;;;;19.55;10.18;;;;;;;4.76;100.00;96540.09;1030584;28;20041;-71
2023/05/03 01:28:56;;;;;;;15.43;9.70;;;;;;;4.75;100.00;96538.53;1025744;28;20026;-69
2023/05/03 01:29:26;;;;;;;15.75;10.25;;;;;;;4.73;100.00;96541.34;1022274;28;20023;-72
2023/05/03 01:29:57;;;;;;;14.07;9.38;;;;;;;4.72;100.00;96538.94;1022058;29;20042;-69
2023/05/03 01:30:27;;;;;;;16.83;10.55;;;;;;;4.68;100.00;96530.75;1018483;28;20032;-71
2023/05/03 01:30:58;;;;;;;13.88;9.65;;;;;;;4.70;100.00;96540.94;1022167;29;20062;-71
2023/05/03 01:31:49;;;;;;;15.23;11.15;;;;;;;4.69;100.00;96534.97;1026365;28;20434;-71
2023/05/03 01:32:22;;;;;;;13.02;9.02;;;;;;;4.64;100.00;96531.38;1022213;29;20023;-71
2023/05/03 01:33:10;;;;;;;16.70;10.60;;;;;;;4.61;100.00;96526.56;1024947;28;20378;-71
2023/05/03 01:33:45;;;;;;;16.70;9.85;;;;;;;4.65;100.00;96538.94;1020912;29;20271;-73
2023/05/03 01:34:16;;;;;;;14.85;9.93;;;;;;;4.65;100.00;96532.97;1018334;29;20279;-71
2023/05/03 01:35:20;;;;;;;14.27;9.85;;;;;;;4.68;100.00;96533.34;1023030;28;20270;-70
2023/05/03 01:36:12;;;;;;;16.58;10.57;;;;;;;4.72;100.00;96538.94;1012165;28;20043;-71
2023/05/03 01:36:43;;;;;;;17.90;10.77;;;;;;;4.71;100.00;96537.34;1026132;28;20279;-72
2023/05/03 01:37:13;;;;;;;17.17;11.05;;;;;;;4.66;100.00;96527.56;1022111;29;20648;-71
2023/05/03 01:37:44;;;;;;;19.52;11.82;;;;;;;4.72;100.00;96534.53;1010361;29;20033;-71
2023/05/03 01:38:15;;;;;;;18.85;11.77;;;;;;;4.70;100.00;96536.56;1014434;29;20047;-69
2023/05/03 01:38:45;;;;;;;21.02;12.10;;;;;;;4.76;100.00;96537.50;1015003;29;20773;-69
2023/05/03 01:39:20;;;;;;;21.83;12.32;;;;;;;4.79;100.00;96539.69;1018006;29;20035;-71
2023/05/03 01:39:54;;;;;;;18.50;11.65;;;;;;;4.82;100.00;96541.09;1022330;29;20515;-71
2023/05/03 01:40:26;;;;;;;23.83;12.65;;;;;;;4.82;100.00;96543.69;1024179;28;20274;-71
2023/05/03 01:40:58;;;;;;;22.85;12.98;;;;;;;4.81;100.00;96535.09;1026114;28;20381;-72
2023/05/03 01:41:28;;;;;;;22.85;14.07;;;;;;;4.85;100.00;96538.09;1030077;28;20282;-71
2023/05/03 01:42:00;;;;;;;40.42;14.55;;;;;;;4.88;100.00;96541.06;1025483;28;20274;-71
2023/05/03 01:42:30;;;;;;;64.18;16.25;;;;;;;4.89;100.00;96542.66;1022077;29;20030;-72
2023/05/03 01:43:01;;;;;;;72.20;17.55;;;;;;;4.85;100.00;96525.88;1026028;28;20262;-71
2023/05/03 01:43:31;;;;;;;49.05;16.13;;;;;;;4.93;100.00;96540.47;1026179;28;20042;-71
2023/05/03 01:44:02;;;;;;;36.45;13.95;;;;;;;4.93;100.00;96533.47;1018203;29;20084;-71
2023/05/03 01:44:32;;;;;;;26.95;14.30;;;;;;;4.97;100.00;96545.03;1014202;29;20498;-71
2023/05/03 01:45:04;;;;;;;39.45;13.60;;;;;;;5.00;100.00;96541.25;1018468;29;20267;-73
2023/05/03 01:45:34;;;;;;;31.20;14.48;;;;;;;4.99;100.00;96534.41;1020704;29;20027;-71
2023/05/03 01:46:04;;;;;;;26.10;13.98;;;;;;;5.02;100.00;96533.22;1014228;29;20295;-71
2023/05/03 01:46:41;;;;;;;24.92;13.02;;;;;;;5.07;100.00;96541.22;1018399;29;20107;-72
2023/05/03 01:47:14;;;;;;;43.15;14.70;;;;;;;5.09;100.00;96539.97;1018055;29;20059;-71
2023/05/03 01:47:44;;;;;;;55.65;15.68;;;;;;;5.12;100.00;96536.16;1022224;29;20314;-71
2023/05/03 01:48:16;;;;;;;107.85;18.10;;;;;;;5.09;100.00;96533.97;1022003;29;20282;-71
2023/05/03 01:48:47;;;;;;;68.15;16.00;;;;;;;5.14;100.00;96531.56;1026288;28;20464;-72
2023/05/03 01:49:17;;;;;;;103.40;21.50;;;;;;;5.18;100.00;96537.94;1030134;28;20273;-71
2023/05/03 01:49:48;;;;;;;78.00;18.70;;;;;;;5.18;100.00;96538.72;1030153;28;20030;-70
2023/05/03 01:50:18;;;;;;;65.05;18.08;;;;;;;5.19;100.00;96548.13;1026242;28;20121;-71
2023/05/03 01:50:48;;;;;;;50.47;16.73;;;;;;;5.20;100.00;96541.94;1026086;28;20027;-72
2023/05/03 01:51:19;;;;;;;124.45;23.02;;;;;;;5.22;100.00;96538.31;1021990;29;20035;-71
2023/05/03 01:51:49;;;;;;;93.35;19.63;;;;;;;5.22;100.00;96540.91;1022498;28;20545;-71
2023/05/03 01:52:20;;;;;;;117.63;21.65;;;;;;;5.19;100.00;96534.31;1017971;29;20027;-72
2023/05/03 01:52:52;;;;;;;81.32;18.48;;;;;;;5.18;100.00;96528.31;1025923;28;20034;-71
2023/05/03 01:53:22;;;;;;;70.20;17.02;;;;;;;5.22;100.00;96536.50;1026411;28;20022;-71
2023/05/03 01:53:52;;;;;;;94.05;20.13;;;;;;;5.27;100.00;96541.91;1022261;28;20259;-70
2023/05/03 01:54:23;;;;;;;99.93;19.17;;;;;;;5.28;100.00;96538.28;1021855;29;20039;-72
2023/05/03 01:54:53;;;;;;;83.75;18.50;;;;;;;5.29;100.00;96534.66;1026189;28;20033;-72
2023/05/03 01:55:24;;;;;;;124.07;23.48;;;;;;;5.29;100.00;96541.69;1026114;28;20030;-71
2023/05/03 01:55:54;;;;;;;170.02;29.13;;;;;;;5.28;100.00;96537.50;1022169;29;20023;-72
2023/05/03 01:56:25;;;;;;;191.77;28.25;;;;;;;5.27;100.00;96541.91;1017950;29;20023;-72
2023/05/03 01:56:56;;;;;;;260.25;32.88;;;;;;;5.29;100.00;96541.69;1021920;29;20509;-72
2023/05/03 01:57:26;;;;;;;95.03;19.80;;;;;;;5.26;100.00;96540.28;1022535;28;20100;-72
2023/05/03 01:57:56;;;;;;;114.40;19.08;;;;;;;5.29;100.00;96549.47;1016679;29;20900;-72
2023/05/03 01:58:27;;;;;;;77.80;18.05;;;;;;;5.26;100.00;96529.88;1018061;29;20046;-71
2023/05/03 01:58:57;;;;;;;115.63;21.92;;;;;;;5.33;100.00;96540.25;1022149;28;20039;-71
2023/05/03 01:59:28;;;;;;;80.03;17.50;;;;;;;5.32;100.00;96539.44;1025870;28;20038;-71
2023/05/03 01:59:58;;;;;;;165.93;26.30;;;;;;;5.32;100.00;96542.06;1026206;28;20030;-72
2023/05/03 02:00:29;;;;;;;45.08;15.23;;;;;;;5.30;100.00;96541.47;1022130;28;20035;-73
2023/05/03 02:00:59;;;;;;;109.15;22.40;;;;;;;5.36;100.00;96545.81;1021815;28;20058;-71
2023/05/03 02:01:30;;;;;;;54.97;16.55;;;;;;;5.38;100.00;96538.63;1021827;29;20040;-71
2023/05/03 02:02:00;;;;;;;70.20;18.30;;;;;;;5.40;100.00;96541.03;1022070;29;20549;-71
2023/05/03 02:02:31;;;;;;;67.78;19.10;;;;;;;5.40;100.00;96546.25;1022100;29;20115;-72
2023/05/03 02:03:01;;;;;;;154.32;25.00;;;;;;;5.41;100.00;96548.63;1030852;28;20069;-72
2023/05/03 02:03:32;;;;;;;189.45;30.50;;;;;;;5.41;100.00;96543.41;1034123;28;20048;-71
2023/05/03 02:04:02;;;;;;;97.63;22.20;;;;;;;5.43;100.00;96545.78;1030103;28;20078;-72
2023/05/03 02:04:33;;;;;;;106.47;22.15;;;;;;;5.47;100.00;96541.00;1025802;28;20492;-71
2023/05/03 02:05:04;;;;;;;60.90;18.55;;;;;;;5.48;100.00;96545.19;1026099;28;20037;-70
2023/05/03 02:05:35;;;;;;;106.95;23.42;;;;;;;5.49;100.00;96544.16;1022145;29;20047;-71
2023/05/03 02:06:05;;;;;;;115.93;21.10;;;;;;;5.46;100.00;96544.59;1022147;28;20035;-73
2023/05/03 02:06:35;;;;;;;96.75;21.52;;;;;;;5.42;100.00;96555.41;1030329;28;20057;-72
2023/05/03 02:07:06;;;;;;;106.95;22.40;;;;;;;5.40;100.00;96554.84;1030014;28;20031;-71
2023/05/03 02:07:37;;;;;;;94.97;21.63;;;;;;;5.38;100.00;96549.03;1028706;28;20026;-71
2023/05/03 02:08:07;;;;;;;71.30;19.67;;;;;;;5.41;100.00;96548.63;1027291;28;20656;-72
2023/05/03 02:08:38;;;;;;;80.35;20.88;;;;;;;5.37;100.00;96555.25;1029568;28;20034;-70
2023/05/03 02:09:09;;;;;;;125.57;26.45;;;;;;;5.38;100.00;96554.25;1026004;28;21113;-71
2023/05/03 02:09:40;;;;;;;116.85;24.20;;;;;;;5.27;100.00;96535.91;1031298;28;20042;-71
2023/05/03 02:10:13;;;;;;;94.07;21.75;;;;;;;5.36;100.00;96551.03;1029987;28;20265;-72
2023/05/03 02:10:44;;;;;;;92.60;21.58;;;;;;;5.38;100.00;96554.25;1030691;28;20479;-70
2023/05/03 02:11:14;;;;;;;175.75;31.27;;;;;;;5.40;100.00;96556.66;1033868;28;20268;-70
2023/05/03 02:11:45;;;;;;;103.82;23.52;;;;;;;5.34;100.00;96542.66;1022578;28;20481;-71
2023/05/03 02:12:15;;;;;;;92.47;23.67;;;;;;;5.40;100.00;96557.44;1022263;29;20027;-72
2023/05/03 02:12:45;;;;;;;107.07;23.20;;;;;;;5.27;100.00;96525.50;1018114;29;20040;-71
2023/05/03 02:13:16;;;;;;;147.45;28.70;;;;;;;5.44;100.00;96557.81;1016647;29;20035;-71
2023/05/03 02:13:49;;;;;;;127.88;26.42;;;;;;;5.43;100.00;96545.78;1022214;28;20833;-71
2023/05/03 02:14:20;;;;;;;133.05;24.42;;;;;;;5.46;100.00;96555.00;1022446;28;20130;-72
2023/05/03 02:14:50;;;;;;;160.45;29.17;;;;;;;5.43;100.00;96541.41;1026566;28;20328;-72
2023/05/03 02:15:21;;;;;;;166.13;29.00;;;;;;;5.48;100.00;96545.19;1034206;28;20042;-71
2023/05/03 02:15:51;;;;;;;89.70;22.48;;;;;;;5.50;100.00;96550.94;1029875;28;20037;-71
2023/05/03 02:16:22;;;;;;;127.95;24.40;;;;;;;5.54;100.00;96558.16;1026363;28;20030;-71
2023/05/03 02:16:55;;;;;;;139.63;29.38;;;;;;;5.55;100.00;96553.75;1026028;28;20043;-70
2023/05/03 02:17:26;;;;;;;130.60;25.67;;;;;;;5.53;100.00;96550.53;1022396;28;20066;-72
2023/05/03 02:17:57;;;;;;;128.38;25.20;;;;;;;5.54;100.00;96557.34;1018540;29;20271;-72
2023/05/03 02:18:30;;;;;;;103.22;23.90;;;;;;;5.58;100.00;96559.31;1018461;29;20083;-71
2023/05/03 02:19:00;;;;;;;102.85;22.30;;;;;;;5.53;100.00;96555.75;1021336;29;20266;-71
2023/05/03 02:19:31;;;;;;;136.95;26.40;;;;;;;5.58;100.00;96558.53;1019293;28;20280;-72
2023/05/03 02:20:02;;;;;;;79.90;21.58;;;;;;;5.61;100.00;96558.91;1024030;28;20046;-71
2023/05/03 02:20:36;;;;;;;160.32;29.10;;;;;;;5.65;100.00;96564.47;1026204;28;20138;-72
2023/05/03 02:21:08;;;;;;;229.52;33.70;;;;;;;5.65;100.00;96565.28;1021925;29;20267;-73
2023/05/03 02:21:38;;;;;;;142.80;28.02;;;;;;;5.67;100.00;96557.28;1025244;28;20278;-71
2023/05/03 02:22:09;;;;;;;227.52;34.50;;;;;;;5.69;100.00;96555.25;1026551;28;20270;-70
2023/05/03 02:22:39;;;;;;;169.90;29.30;;;;;;;5.73;100.00;96553.81;1024521;28;20022;-70
2023/05/03 02:23:09;;;;;;;212.02;35.10;;;;;;;5.72;100.00;96554.81;1027134;28;20575;-71
2023/05/03 02:23:40;;;;;;;203.50;33.72;;;;;;;5.73;100.00;96561.63;1022654;29;20397;-71
2023/05/03 02:24:11;;;;;;;131.73;26.58;;;;;;;5.68;100.00;96543.25;1022815;29;20027;-72
2023/05/03 02:24:42;;;;;;;94.40;24.48;;;;;;;5.75;100.00;96559.59;1022784;28;20083;-72
2023/05/03 02:25:12;;;;;;;117.90;27.08;;;;;;;5.77;100.00;96557.59;1029246;28;20057;-71
2023/05/03 02:25:43;;;;;;;152.05;29.00;;;;;;;5.78;100.00;96553.97;1026221;28;20981;-71
2023/05/03 02:26:13;;;;;;;102.35;26.40;;;;;;;5.73;100.00;96551.19;1018388;29;20016;-71
2023/05/03 02:26:44;;;;;;;127.10;28.83;;;;;;;5.75;100.00;96553.59;1018639;29;20391;-71
2023/05/03 02:27:14;;;;;;;105.53;27.45;;;;;;;5.78;100.00;96555.78;1022971;28;20070;-72
2023/05/03 02:27:45;;;;;;;129.38;29.13;;;;;;;5.77;100.00;96547.19;1026976;28;20023;-71